sensor_id;sensor_type;location;lat;lon;timestamp;P1;durP1;ratioP1;P2;durP2;ratioP2
75005;SDS011;63553;51.814;4.600;2023-05-10T00:01:41;17.17;;;8.20;;
75005;SDS011;63553;51.814;4.600;2023-05-10T00:04:07;13.07;;;7.77;;
75005;SDS011;63553;51.814;4.600;2023-05-10T00:06:32;23.25;;;8.75;;
75005;SDS011;63553;51.814;4.600;2023-05-10T00:08:58;19.05;;;8.93;;
75005;SDS011;63553;51.814;4.600;2023-05-10T00:11:23;18.37;;;8.97;;
75005;SDS011;63553;51.814;4.600;2023-05-10T00:13:49;15.05;;;7.65;;
75005;SDS011;63553;51.814;4.600;2023-05-10T00:16:14;17.02;;;8.57;;
75005;SDS011;63553;51.814;4.600;2023-05-10T00:18:39;17.50;;;8.37;;
75005;SDS011;63553;51.814;4.600;2023-05-10T00:21:05;20.13;;;9.43;;
75005;SDS011;63553;51.814;4.600;2023-05-10T00:23:30;21.92;;;9.32;;
75005;SDS011;63553;51.814;4.600;2023-05-10T00:25:56;18.63;;;9.43;;
75005;SDS011;63553;51.814;4.600;2023-05-10T00:28:21;17.10;;;9.10;;
75005;SDS011;63553;51.814;4.600;2023-05-10T00:30:47;17.90;;;9.30;;
75005;SDS011;63553;51.814;4.600;2023-05-10T00:33:12;14.97;;;8.40;;
75005;SDS011;63553;51.814;4.600;2023-05-10T00:35:37;18.25;;;9.70;;
75005;SDS011;63553;51.814;4.600;2023-05-10T00:38:03;18.05;;;9.20;;
75005;SDS011;63553;51.814;4.600;2023-05-10T00:40:28;20.63;;;9.32;;
75005;SDS011;63553;51.814;4.600;2023-05-10T00:42:55;17.02;;;9.05;;
75005;SDS011;63553;51.814;4.600;2023-05-10T00:45:21;17.98;;;9.10;;
75005;SDS011;63553;51.814;4.600;2023-05-10T00:47:46;19.90;;;9.40;;
75005;SDS011;63553;51.814;4.600;2023-05-10T00:50:12;21.52;;;9.85;;
75005;SDS011;63553;51.814;4.600;2023-05-10T00:52:38;21.75;;;9.60;;
75005;SDS011;63553;51.814;4.600;2023-05-10T00:55:04;29.13;;;11.57;;
75005;SDS011;63553;51.814;4.600;2023-05-10T00:57:30;25.80;;;10.52;;
75005;SDS011;63553;51.814;4.600;2023-05-10T00:59:56;26.60;;;11.15;;
75005;SDS011;63553;51.814;4.600;2023-05-10T01:02:22;26.05;;;11.35;;
75005;SDS011;63553;51.814;4.600;2023-05-10T01:04:48;19.87;;;11.03;;
75005;SDS011;63553;51.814;4.600;2023-05-10T01:07:14;24.55;;;11.85;;
75005;SDS011;63553;51.814;4.600;2023-05-10T01:09:39;25.63;;;12.00;;
75005;SDS011;63553;51.814;4.600;2023-05-10T01:12:05;24.40;;;12.13;;
75005;SDS011;63553;51.814;4.600;2023-05-10T01:14:32;21.05;;;10.55;;
75005;SDS011;63553;51.814;4.600;2023-05-10T01:16:58;17.98;;;9.98;;
75005;SDS011;63553;51.814;4.600;2023-05-10T01:19:25;19.70;;;10.02;;
75005;SDS011;63553;51.814;4.600;2023-05-10T01:33:00;22.60;;;10.10;;
75005;SDS011;63553;51.814;4.600;2023-05-10T01:38:17;24.33;;;11.27;;
75005;SDS011;63553;51.814;4.600;2023-05-10T01:43:45;20.83;;;10.32;;
75005;SDS011;63553;51.814;4.600;2023-05-10T01:46:36;20.83;;;10.32;;
75005;SDS011;63553;51.814;4.600;2023-05-10T01:49:03;20.73;;;9.88;;
75005;SDS011;63553;51.814;4.600;2023-05-10T01:51:41;21.70;;;10.68;;
75005;SDS011;63553;51.814;4.600;2023-05-10T01:54:13;20.90;;;11.50;;
75005;SDS011;63553;51.814;4.600;2023-05-10T01:56:44;20.17;;;10.13;;
75005;SDS011;63553;51.814;4.600;2023-05-10T01:59:16;23.35;;;8.85;;
75005;SDS011;63553;51.814;4.600;2023-05-10T02:01:43;21.08;;;9.27;;
75005;SDS011;63553;51.814;4.600;2023-05-10T02:04:10;21.00;;;8.60;;
75005;SDS011;63553;51.814;4.600;2023-05-10T02:06:38;21.23;;;9.80;;
75005;SDS011;63553;51.814;4.600;2023-05-10T02:09:06;18.65;;;7.85;;
75005;SDS011;63553;51.814;4.600;2023-05-10T02:11:34;21.13;;;7.97;;
75005;SDS011;63553;51.814;4.600;2023-05-10T02:13:59;14.50;;;7.72;;
75005;SDS011;63553;51.814;4.600;2023-05-10T02:16:26;23.13;;;9.43;;
75005;SDS011;63553;51.814;4.600;2023-05-10T02:18:52;15.52;;;7.85;;
75005;SDS011;63553;51.814;4.600;2023-05-10T02:21:20;23.08;;;8.88;;
75005;SDS011;63553;51.814;4.600;2023-05-10T02:23:48;17.67;;;9.48;;
75005;SDS011;63553;51.814;4.600;2023-05-10T02:26:15;24.65;;;10.35;;
75005;SDS011;63553;51.814;4.600;2023-05-10T02:28:42;19.80;;;9.52;;
75005;SDS011;63553;51.814;4.600;2023-05-10T02:31:09;10.30;;;5.43;;
75005;SDS011;63553;51.814;4.600;2023-05-10T02:33:35;21.10;;;10.13;;
75005;SDS011;63553;51.814;4.600;2023-05-10T02:36:04;19.98;;;9.05;;
75005;SDS011;63553;51.814;4.600;2023-05-10T02:38:32;24.67;;;10.20;;
75005;SDS011;63553;51.814;4.600;2023-05-10T02:40:59;18.05;;;10.00;;
75005;SDS011;63553;51.814;4.600;2023-05-10T02:43:26;20.67;;;10.18;;
75005;SDS011;63553;51.814;4.600;2023-05-10T02:45:53;18.05;;;8.30;;
75005;SDS011;63553;51.814;4.600;2023-05-10T02:48:19;18.33;;;8.77;;
75005;SDS011;63553;51.814;4.600;2023-05-10T02:50:44;24.58;;;10.52;;
75005;SDS011;63553;51.814;4.600;2023-05-10T02:53:15;17.45;;;7.45;;
75005;SDS011;63553;51.814;4.600;2023-05-10T02:55:44;9.20;;;5.18;;
75005;SDS011;63553;51.814;4.600;2023-05-10T02:58:13;20.15;;;9.15;;
75005;SDS011;63553;51.814;4.600;2023-05-10T03:00:38;19.67;;;10.00;;
75005;SDS011;63553;51.814;4.600;2023-05-10T03:03:04;14.68;;;7.72;;
75005;SDS011;63553;51.814;4.600;2023-05-10T03:05:30;24.55;;;9.43;;
75005;SDS011;63553;51.814;4.600;2023-05-10T03:07:55;16.95;;;7.78;;
75005;SDS011;63553;51.814;4.600;2023-05-10T03:10:22;21.17;;;8.57;;
75005;SDS011;63553;51.814;4.600;2023-05-10T03:15:42;12.00;;;6.10;;
75005;SDS011;63553;51.814;4.600;2023-05-10T03:18:13;15.10;;;7.25;;
75005;SDS011;63553;51.814;4.600;2023-05-10T03:20:44;24.50;;;9.38;;
75005;SDS011;63553;51.814;4.600;2023-05-10T03:23:17;15.18;;;6.60;;
75005;SDS011;63553;51.814;4.600;2023-05-10T03:26:05;20.35;;;8.63;;
75005;SDS011;63553;51.814;4.600;2023-05-10T03:28:32;18.90;;;8.70;;
75005;SDS011;63553;51.814;4.600;2023-05-10T03:30:59;19.05;;;8.05;;
75005;SDS011;63553;51.814;4.600;2023-05-10T03:33:25;20.95;;;9.90;;
75005;SDS011;63553;51.814;4.600;2023-05-10T03:35:50;24.52;;;10.68;;
75005;SDS011;63553;51.814;4.600;2023-05-10T03:38:16;19.15;;;7.43;;
75005;SDS011;63553;51.814;4.600;2023-05-10T03:40:41;18.43;;;9.53;;
75005;SDS011;63553;51.814;4.600;2023-05-10T03:43:06;20.97;;;10.23;;
75005;SDS011;63553;51.814;4.600;2023-05-10T03:45:32;22.50;;;11.60;;
75005;SDS011;63553;51.814;4.600;2023-05-10T03:47:57;25.73;;;11.43;;
75005;SDS011;63553;51.814;4.600;2023-05-10T03:50:23;24.15;;;12.48;;
75005;SDS011;63553;51.814;4.600;2023-05-10T03:52:49;24.10;;;11.50;;
75005;SDS011;63553;51.814;4.600;2023-05-10T03:55:14;26.10;;;13.13;;
75005;SDS011;63553;51.814;4.600;2023-05-10T03:57:40;24.60;;;12.52;;
75005;SDS011;63553;51.814;4.600;2023-05-10T04:00:05;32.65;;;14.02;;
75005;SDS011;63553;51.814;4.600;2023-05-10T04:02:31;20.95;;;11.30;;
75005;SDS011;63553;51.814;4.600;2023-05-10T04:04:56;28.23;;;13.80;;
75005;SDS011;63553;51.814;4.600;2023-05-10T04:07:22;11.30;;;6.53;;
75005;SDS011;63553;51.814;4.600;2023-05-10T04:09:47;17.77;;;9.07;;
75005;SDS011;63553;51.814;4.600;2023-05-10T04:12:13;27.47;;;13.27;;
75005;SDS011;63553;51.814;4.600;2023-05-10T04:14:38;27.58;;;14.05;;
75005;SDS011;63553;51.814;4.600;2023-05-10T04:17:03;23.80;;;12.90;;
75005;SDS011;63553;51.814;4.600;2023-05-10T04:19:29;26.83;;;11.30;;
75005;SDS011;63553;51.814;4.600;2023-05-10T04:21:55;20.85;;;12.15;;
75005;SDS011;63553;51.814;4.600;2023-05-10T04:24:21;18.77;;;11.70;;
75005;SDS011;63553;51.814;4.600;2023-05-10T04:26:46;21.93;;;12.13;;
75005;SDS011;63553;51.814;4.600;2023-05-10T04:29:11;27.57;;;13.43;;
75005;SDS011;63553;51.814;4.600;2023-05-10T04:31:36;30.83;;;13.43;;
75005;SDS011;63553;51.814;4.600;2023-05-10T04:34:02;23.33;;;13.30;;
75005;SDS011;63553;51.814;4.600;2023-05-10T04:36:27;21.95;;;11.48;;
75005;SDS011;63553;51.814;4.600;2023-05-10T04:38:53;16.15;;;9.10;;
75005;SDS011;63553;51.814;4.600;2023-05-10T04:41:19;17.55;;;8.38;;
75005;SDS011;63553;51.814;4.600;2023-05-10T04:43:45;15.55;;;8.07;;
75005;SDS011;63553;51.814;4.600;2023-05-10T04:46:10;11.60;;;5.82;;
75005;SDS011;63553;51.814;4.600;2023-05-10T04:48:36;16.60;;;7.55;;
75005;SDS011;63553;51.814;4.600;2023-05-10T04:51:01;12.45;;;6.47;;
75005;SDS011;63553;51.814;4.600;2023-05-10T04:53:28;10.50;;;5.72;;
75005;SDS011;63553;51.814;4.600;2023-05-10T04:55:54;18.52;;;8.60;;
75005;SDS011;63553;51.814;4.600;2023-05-10T04:58:19;12.43;;;5.90;;
75005;SDS011;63553;51.814;4.600;2023-05-10T05:00:44;17.13;;;8.47;;
75005;SDS011;63553;51.814;4.600;2023-05-10T05:03:10;17.50;;;9.03;;
75005;SDS011;63553;51.814;4.600;2023-05-10T05:05:35;13.98;;;7.55;;
75005;SDS011;63553;51.814;4.600;2023-05-10T05:08:00;18.63;;;6.50;;
75005;SDS011;63553;51.814;4.600;2023-05-10T05:10:26;18.15;;;8.52;;
75005;SDS011;63553;51.814;4.600;2023-05-10T05:12:51;16.80;;;6.83;;
75005;SDS011;63553;51.814;4.600;2023-05-10T05:15:16;15.93;;;8.40;;
75005;SDS011;63553;51.814;4.600;2023-05-10T05:17:42;14.63;;;6.73;;
75005;SDS011;63553;51.814;4.600;2023-05-10T05:20:08;13.68;;;6.47;;
75005;SDS011;63553;51.814;4.600;2023-05-10T05:22:35;12.77;;;6.68;;
75005;SDS011;63553;51.814;4.600;2023-05-10T05:25:01;18.98;;;9.15;;
75005;SDS011;63553;51.814;4.600;2023-05-10T05:27:27;20.23;;;10.55;;
75005;SDS011;63553;51.814;4.600;2023-05-10T05:29:53;17.67;;;10.00;;
75005;SDS011;63553;51.814;4.600;2023-05-10T05:32:19;15.23;;;9.23;;
75005;SDS011;63553;51.814;4.600;2023-05-10T05:34:44;21.00;;;9.63;;
75005;SDS011;63553;51.814;4.600;2023-05-10T05:37:13;17.88;;;9.15;;
75005;SDS011;63553;51.814;4.600;2023-05-10T05:39:39;19.80;;;10.43;;
75005;SDS011;63553;51.814;4.600;2023-05-10T05:42:05;13.45;;;8.30;;
75005;SDS011;63553;51.814;4.600;2023-05-10T05:44:30;15.20;;;9.07;;
75005;SDS011;63553;51.814;4.600;2023-05-10T05:46:55;17.40;;;8.53;;
75005;SDS011;63553;51.814;4.600;2023-05-10T05:49:21;13.88;;;7.40;;
75005;SDS011;63553;51.814;4.600;2023-05-10T05:51:46;17.65;;;7.60;;
75005;SDS011;63553;51.814;4.600;2023-05-10T05:54:13;14.43;;;7.88;;
75005;SDS011;63553;51.814;4.600;2023-05-10T05:56:39;12.20;;;7.67;;
75005;SDS011;63553;51.814;4.600;2023-05-10T05:59:04;14.83;;;7.97;;
75005;SDS011;63553;51.814;4.600;2023-05-10T06:01:29;13.43;;;7.53;;
75005;SDS011;63553;51.814;4.600;2023-05-10T06:03:55;15.43;;;8.43;;
75005;SDS011;63553;51.814;4.600;2023-05-10T06:06:20;14.27;;;6.90;;
75005;SDS011;63553;51.814;4.600;2023-05-10T06:08:45;12.63;;;6.77;;
75005;SDS011;63553;51.814;4.600;2023-05-10T06:11:11;12.40;;;7.77;;
75005;SDS011;63553;51.814;4.600;2023-05-10T06:13:36;12.60;;;6.97;;
75005;SDS011;63553;51.814;4.600;2023-05-10T06:16:02;13.73;;;7.67;;
75005;SDS011;63553;51.814;4.600;2023-05-10T06:18:27;15.27;;;8.48;;
75005;SDS011;63553;51.814;4.600;2023-05-10T06:20:53;12.67;;;6.73;;
75005;SDS011;63553;51.814;4.600;2023-05-10T06:23:18;9.83;;;6.63;;
75005;SDS011;63553;51.814;4.600;2023-05-10T06:25:44;12.60;;;7.38;;
75005;SDS011;63553;51.814;4.600;2023-05-10T06:28:09;17.10;;;7.38;;
75005;SDS011;63553;51.814;4.600;2023-05-10T06:30:36;11.30;;;7.07;;
75005;SDS011;63553;51.814;4.600;2023-05-10T06:33:01;12.25;;;7.45;;
75005;SDS011;63553;51.814;4.600;2023-05-10T06:35:27;12.15;;;6.97;;
75005;SDS011;63553;51.814;4.600;2023-05-10T06:37:53;17.33;;;7.15;;
75005;SDS011;63553;51.814;4.600;2023-05-10T06:40:19;23.45;;;10.25;;
75005;SDS011;63553;51.814;4.600;2023-05-10T06:42:45;18.20;;;6.50;;
75005;SDS011;63553;51.814;4.600;2023-05-10T06:45:11;16.60;;;6.28;;
75005;SDS011;63553;51.814;4.600;2023-05-10T06:47:37;16.23;;;6.88;;
75005;SDS011;63553;51.814;4.600;2023-05-10T06:50:02;11.83;;;5.50;;
75005;SDS011;63553;51.814;4.600;2023-05-10T06:52:28;8.07;;;4.93;;
75005;SDS011;63553;51.814;4.600;2023-05-10T06:54:53;8.07;;;5.70;;
75005;SDS011;63553;51.814;4.600;2023-05-10T06:57:18;7.63;;;4.90;;
75005;SDS011;63553;51.814;4.600;2023-05-10T06:59:44;7.75;;;4.90;;
75005;SDS011;63553;51.814;4.600;2023-05-10T07:02:09;8.75;;;5.60;;
75005;SDS011;63553;51.814;4.600;2023-05-10T07:04:35;12.53;;;5.20;;
75005;SDS011;63553;51.814;4.600;2023-05-10T07:07:00;8.10;;;4.43;;
75005;SDS011;63553;51.814;4.600;2023-05-10T07:09:25;8.90;;;5.27;;
75005;SDS011;63553;51.814;4.600;2023-05-10T07:11:51;7.28;;;4.70;;
75005;SDS011;63553;51.814;4.600;2023-05-10T07:14:16;7.03;;;4.22;;
75005;SDS011;63553;51.814;4.600;2023-05-10T07:16:42;6.63;;;4.13;;
75005;SDS011;63553;51.814;4.600;2023-05-10T07:19:07;7.07;;;3.97;;
75005;SDS011;63553;51.814;4.600;2023-05-10T07:21:32;7.13;;;3.80;;
75005;SDS011;63553;51.814;4.600;2023-05-10T07:23:58;7.28;;;4.22;;
75005;SDS011;63553;51.814;4.600;2023-05-10T07:26:24;6.22;;;4.30;;
75005;SDS011;63553;51.814;4.600;2023-05-10T07:28:50;9.02;;;4.05;;
75005;SDS011;63553;51.814;4.600;2023-05-10T07:31:15;6.73;;;4.80;;
75005;SDS011;63553;51.814;4.600;2023-05-10T07:33:40;6.53;;;4.00;;
75005;SDS011;63553;51.814;4.600;2023-05-10T07:36:06;8.40;;;3.92;;
75005;SDS011;63553;51.814;4.600;2023-05-10T07:38:31;8.98;;;4.88;;
75005;SDS011;63553;51.814;4.600;2023-05-10T07:40:57;8.03;;;3.90;;
75005;SDS011;63553;51.814;4.600;2023-05-10T07:43:22;8.93;;;4.10;;
75005;SDS011;63553;51.814;4.600;2023-05-10T07:45:47;7.83;;;4.00;;
75005;SDS011;63553;51.814;4.600;2023-05-10T07:48:13;6.45;;;3.63;;
75005;SDS011;63553;51.814;4.600;2023-05-10T07:50:38;4.23;;;3.27;;
75005;SDS011;63553;51.814;4.600;2023-05-10T07:53:04;5.27;;;3.50;;
75005;SDS011;63553;51.814;4.600;2023-05-10T07:55:29;5.37;;;3.50;;
75005;SDS011;63553;51.814;4.600;2023-05-10T07:57:54;6.73;;;3.07;;
75005;SDS011;63553;51.814;4.600;2023-05-10T08:00:20;5.93;;;3.90;;
75005;SDS011;63553;51.814;4.600;2023-05-10T08:02:45;6.53;;;3.30;;
75005;SDS011;63553;51.814;4.600;2023-05-10T08:05:11;4.40;;;3.90;;
75005;SDS011;63553;51.814;4.600;2023-05-10T08:07:37;4.80;;;3.22;;
75005;SDS011;63553;51.814;4.600;2023-05-10T08:10:03;4.33;;;2.93;;
75005;SDS011;63553;51.814;4.600;2023-05-10T08:12:29;8.63;;;3.22;;
75005;SDS011;63553;51.814;4.600;2023-05-10T08:14:55;4.18;;;3.22;;
75005;SDS011;63553;51.814;4.600;2023-05-10T08:17:20;4.83;;;2.80;;
75005;SDS011;63553;51.814;4.600;2023-05-10T08:19:46;4.25;;;2.63;;
75005;SDS011;63553;51.814;4.600;2023-05-10T08:22:11;4.43;;;2.80;;
75005;SDS011;63553;51.814;4.600;2023-05-10T08:24:37;3.75;;;2.80;;
75005;SDS011;63553;51.814;4.600;2023-05-10T08:27:04;4.65;;;2.88;;
75005;SDS011;63553;51.814;4.600;2023-05-10T08:29:30;3.88;;;2.80;;
75005;SDS011;63553;51.814;4.600;2023-05-10T08:31:56;3.50;;;2.63;;
75005;SDS011;63553;51.814;4.600;2023-05-10T08:34:21;5.83;;;2.67;;
75005;SDS011;63553;51.814;4.600;2023-05-10T08:36:46;10.40;;;7.03;;
75005;SDS011;63553;51.814;4.600;2023-05-10T08:39:12;3.83;;;2.80;;
75005;SDS011;63553;51.814;4.600;2023-05-10T08:41:38;6.28;;;3.00;;
75005;SDS011;63553;51.814;4.600;2023-05-10T08:44:05;2.95;;;2.45;;
75005;SDS011;63553;51.814;4.600;2023-05-10T08:46:33;4.90;;;2.30;;
75005;SDS011;63553;51.814;4.600;2023-05-10T08:49:01;2.78;;;2.30;;
75005;SDS011;63553;51.814;4.600;2023-05-10T08:51:29;2.20;;;2.00;;
75005;SDS011;63553;51.814;4.600;2023-05-10T08:53:57;5.25;;;2.53;;
75005;SDS011;63553;51.814;4.600;2023-05-10T08:56:23;4.43;;;2.10;;
75005;SDS011;63553;51.814;4.600;2023-05-10T08:58:49;3.78;;;2.15;;
75005;SDS011;63553;51.814;4.600;2023-05-10T09:01:15;4.97;;;2.08;;
75005;SDS011;63553;51.814;4.600;2023-05-10T09:03:43;4.28;;;2.08;;
75005;SDS011;63553;51.814;4.600;2023-05-10T09:06:10;3.10;;;2.30;;
75005;SDS011;63553;51.814;4.600;2023-05-10T09:08:38;2.65;;;2.38;;
75005;SDS011;63553;51.814;4.600;2023-05-10T09:11:03;3.10;;;2.33;;
75005;SDS011;63553;51.814;4.600;2023-05-10T09:13:30;4.18;;;2.40;;
75005;SDS011;63553;51.814;4.600;2023-05-10T09:15:55;3.92;;;3.15;;
75005;SDS011;63553;51.814;4.600;2023-05-10T09:18:21;3.90;;;2.20;;
75005;SDS011;63553;51.814;4.600;2023-05-10T09:20:46;2.85;;;2.38;;
75005;SDS011;63553;51.814;4.600;2023-05-10T09:23:13;5.30;;;2.42;;
75005;SDS011;63553;51.814;4.600;2023-05-10T09:25:38;2.70;;;2.50;;
75005;SDS011;63553;51.814;4.600;2023-05-10T09:28:08;3.53;;;2.10;;
75005;SDS011;63553;51.814;4.600;2023-05-10T09:30:37;2.70;;;2.50;;
75005;SDS011;63553;51.814;4.600;2023-05-10T09:33:02;3.83;;;2.20;;
75005;SDS011;63553;51.814;4.600;2023-05-10T09:35:29;2.10;;;1.98;;
75005;SDS011;63553;51.814;4.600;2023-05-10T09:37:57;2.65;;;1.98;;
75005;SDS011;63553;51.814;4.600;2023-05-10T09:40:25;3.05;;;2.13;;
75005;SDS011;63553;51.814;4.600;2023-05-10T09:42:53;2.65;;;1.95;;
75005;SDS011;63553;51.814;4.600;2023-05-10T09:45:30;2.22;;;2.03;;
75005;SDS011;63553;51.814;4.600;2023-05-10T09:47:56;2.95;;;2.20;;
75005;SDS011;63553;51.814;4.600;2023-05-10T09:50:22;1.98;;;1.88;;
75005;SDS011;63553;51.814;4.600;2023-05-10T09:52:52;2.50;;;1.67;;
75005;SDS011;63553;51.814;4.600;2023-05-10T09:55:20;4.97;;;2.15;;
75005;SDS011;63553;51.814;4.600;2023-05-10T09:57:47;4.95;;;2.50;;
75005;SDS011;63553;51.814;4.600;2023-05-10T10:00:20;2.30;;;1.75;;
75005;SDS011;63553;51.814;4.600;2023-05-10T10:02:54;4.95;;;2.97;;
75005;SDS011;63553;51.814;4.600;2023-05-10T10:05:30;2.88;;;1.83;;
75005;SDS011;63553;51.814;4.600;2023-05-10T10:07:59;3.35;;;2.00;;
75005;SDS011;63553;51.814;4.600;2023-05-10T10:10:26;2.58;;;1.95;;
75005;SDS011;63553;51.814;4.600;2023-05-10T10:12:52;2.03;;;1.92;;
75005;SDS011;63553;51.814;4.600;2023-05-10T10:15:18;2.83;;;2.25;;
75005;SDS011;63553;51.814;4.600;2023-05-10T10:17:44;2.33;;;2.13;;
75005;SDS011;63553;51.814;4.600;2023-05-10T10:20:10;3.42;;;2.25;;
75005;SDS011;63553;51.814;4.600;2023-05-10T10:22:36;3.20;;;1.90;;
75005;SDS011;63553;51.814;4.600;2023-05-10T10:25:03;3.40;;;2.15;;
75005;SDS011;63553;51.814;4.600;2023-05-10T10:32:48;2.00;;;1.63;;
75005;SDS011;63553;51.814;4.600;2023-05-10T10:35:28;2.78;;;1.90;;
75005;SDS011;63553;51.814;4.600;2023-05-10T10:37:55;2.15;;;1.90;;
75005;SDS011;63553;51.814;4.600;2023-05-10T10:40:32;3.10;;;1.92;;
75005;SDS011;63553;51.814;4.600;2023-05-10T10:42:58;2.20;;;1.75;;
75005;SDS011;63553;51.814;4.600;2023-05-10T10:48:49;2.22;;;2.00;;
75005;SDS011;63553;51.814;4.600;2023-05-10T10:51:16;2.00;;;1.80;;
75005;SDS011;63553;51.814;4.600;2023-05-10T10:53:42;2.97;;;2.35;;
75005;SDS011;63553;51.814;4.600;2023-05-10T10:56:08;3.28;;;2.30;;
75005;SDS011;63553;51.814;4.600;2023-05-10T10:58:35;3.47;;;2.35;;
75005;SDS011;63553;51.814;4.600;2023-05-10T11:01:21;2.58;;;2.05;;
75005;SDS011;63553;51.814;4.600;2023-05-10T11:06:30;4.45;;;2.30;;
75005;SDS011;63553;51.814;4.600;2023-05-10T11:08:57;4.15;;;2.47;;
75005;SDS011;63553;51.814;4.600;2023-05-10T11:11:22;2.60;;;2.40;;
75005;SDS011;63553;51.814;4.600;2023-05-10T11:13:48;2.00;;;1.90;;
75005;SDS011;63553;51.814;4.600;2023-05-10T11:19:04;2.80;;;2.22;;
75005;SDS011;63553;51.814;4.600;2023-05-10T11:21:32;3.35;;;2.03;;
75005;SDS011;63553;51.814;4.600;2023-05-10T11:23:59;2.72;;;1.95;;
75005;SDS011;63553;51.814;4.600;2023-05-10T11:26:30;3.05;;;1.80;;
75005;SDS011;63553;51.814;4.600;2023-05-10T11:28:58;2.00;;;1.75;;
75005;SDS011;63553;51.814;4.600;2023-05-10T11:31:25;2.17;;;1.95;;
75005;SDS011;63553;51.814;4.600;2023-05-10T11:33:52;2.25;;;1.88;;
75005;SDS011;63553;51.814;4.600;2023-05-10T11:36:26;2.92;;;1.73;;
75005;SDS011;63553;51.814;4.600;2023-05-10T11:38:53;1.67;;;1.58;;
75005;SDS011;63553;51.814;4.600;2023-05-10T11:41:19;2.08;;;1.95;;
75005;SDS011;63553;51.814;4.600;2023-05-10T11:43:51;3.38;;;2.10;;
75005;SDS011;63553;51.814;4.600;2023-05-10T11:46:18;3.05;;;1.80;;
75005;SDS011;63553;51.814;4.600;2023-05-10T11:48:45;3.50;;;2.00;;
75005;SDS011;63553;51.814;4.600;2023-05-10T11:51:13;9.20;;;2.40;;
75005;SDS011;63553;51.814;4.600;2023-05-10T11:53:39;4.20;;;2.60;;
75005;SDS011;63553;51.814;4.600;2023-05-10T11:56:05;2.63;;;2.20;;
75005;SDS011;63553;51.814;4.600;2023-05-10T11:58:32;2.38;;;1.92;;
75005;SDS011;63553;51.814;4.600;2023-05-10T12:00:58;2.13;;;1.90;;
75005;SDS011;63553;51.814;4.600;2023-05-10T12:03:24;2.40;;;2.10;;
75005;SDS011;63553;51.814;4.600;2023-05-10T12:05:50;5.53;;;1.95;;
75005;SDS011;63553;51.814;4.600;2023-05-10T12:08:19;2.47;;;2.00;;
75005;SDS011;63553;51.814;4.600;2023-05-10T12:10:46;2.55;;;1.65;;
75005;SDS011;63553;51.814;4.600;2023-05-10T12:13:12;2.30;;;1.83;;
75005;SDS011;63553;51.814;4.600;2023-05-10T12:15:39;1.90;;;1.80;;
75005;SDS011;63553;51.814;4.600;2023-05-10T12:18:05;3.47;;;1.98;;
75005;SDS011;63553;51.814;4.600;2023-05-10T12:20:30;3.65;;;2.20;;
75005;SDS011;63553;51.814;4.600;2023-05-10T12:22:57;2.40;;;1.77;;
75005;SDS011;63553;51.814;4.600;2023-05-10T12:25:24;1.60;;;1.50;;
75005;SDS011;63553;51.814;4.600;2023-05-10T12:27:55;3.55;;;1.80;;
75005;SDS011;63553;51.814;4.600;2023-05-10T12:30:22;2.50;;;1.60;;
75005;SDS011;63553;51.814;4.600;2023-05-10T12:32:51;2.05;;;1.75;;
75005;SDS011;63553;51.814;4.600;2023-05-10T12:35:17;4.43;;;1.83;;
75005;SDS011;63553;51.814;4.600;2023-05-10T12:37:46;3.05;;;1.80;;
75005;SDS011;63553;51.814;4.600;2023-05-10T12:40:12;3.05;;;1.80;;
75005;SDS011;63553;51.814;4.600;2023-05-10T12:42:38;1.85;;;1.67;;
75005;SDS011;63553;51.814;4.600;2023-05-10T12:45:04;2.65;;;1.52;;
75005;SDS011;63553;51.814;4.600;2023-05-10T12:47:31;2.20;;;1.73;;
75005;SDS011;63553;51.814;4.600;2023-05-10T12:49:57;1.92;;;1.73;;
75005;SDS011;63553;51.814;4.600;2023-05-10T12:52:23;3.10;;;2.10;;
75005;SDS011;63553;51.814;4.600;2023-05-10T12:54:49;3.85;;;1.75;;
75005;SDS011;63553;51.814;4.600;2023-05-10T12:57:15;1.63;;;1.52;;
75005;SDS011;63553;51.814;4.600;2023-05-10T12:59:42;3.35;;;1.65;;
75005;SDS011;63553;51.814;4.600;2023-05-10T13:02:08;3.40;;;1.70;;
75005;SDS011;63553;51.814;4.600;2023-05-10T13:04:33;1.90;;;1.50;;
75005;SDS011;63553;51.814;4.600;2023-05-10T13:06:59;1.83;;;1.60;;
75005;SDS011;63553;51.814;4.600;2023-05-10T13:09:24;1.77;;;1.67;;
75005;SDS011;63553;51.814;4.600;2023-05-10T13:11:51;1.45;;;1.20;;
75005;SDS011;63553;51.814;4.600;2023-05-10T13:14:18;3.05;;;1.63;;
75005;SDS011;63553;51.814;4.600;2023-05-10T13:16:45;2.42;;;1.60;;
75005;SDS011;63553;51.814;4.600;2023-05-10T13:19:10;1.70;;;1.60;;
75005;SDS011;63553;51.814;4.600;2023-05-10T13:21:36;2.67;;;1.55;;
75005;SDS011;63553;51.814;4.600;2023-05-10T13:24:01;1.70;;;1.60;;
75005;SDS011;63553;51.814;4.600;2023-05-10T13:26:27;1.40;;;1.30;;
75005;SDS011;63553;51.814;4.600;2023-05-10T13:28:53;2.90;;;1.60;;
75005;SDS011;63553;51.814;4.600;2023-05-10T13:31:20;2.92;;;1.48;;
75005;SDS011;63553;51.814;4.600;2023-05-10T13:33:45;2.47;;;1.70;;
75005;SDS011;63553;51.814;4.600;2023-05-10T13:36:11;2.28;;;1.38;;
75005;SDS011;63553;51.814;4.600;2023-05-10T13:38:36;5.80;;;1.57;;
75005;SDS011;63553;51.814;4.600;2023-05-10T13:41:02;5.63;;;1.40;;
75005;SDS011;63553;51.814;4.600;2023-05-10T13:43:28;3.35;;;1.50;;
75005;SDS011;63553;51.814;4.600;2023-05-10T13:45:54;2.10;;;1.30;;
75005;SDS011;63553;51.814;4.600;2023-05-10T13:48:19;3.33;;;1.70;;
75005;SDS011;63553;51.814;4.600;2023-05-10T13:50:45;1.67;;;1.30;;
75005;SDS011;63553;51.814;4.600;2023-05-10T13:53:11;1.60;;;1.50;;
75005;SDS011;63553;51.814;4.600;2023-05-10T13:55:36;1.88;;;1.50;;
75005;SDS011;63553;51.814;4.600;2023-05-10T13:58:01;2.25;;;1.88;;
75005;SDS011;63553;51.814;4.600;2023-05-10T14:00:27;3.25;;;1.55;;
75005;SDS011;63553;51.814;4.600;2023-05-10T14:02:53;1.73;;;1.60;;
75005;SDS011;63553;51.814;4.600;2023-05-10T14:05:18;2.80;;;1.67;;
75005;SDS011;63553;51.814;4.600;2023-05-10T14:07:44;2.00;;;1.80;;
75005;SDS011;63553;51.814;4.600;2023-05-10T14:10:09;3.97;;;1.80;;
75005;SDS011;63553;51.814;4.600;2023-05-10T14:12:34;2.78;;;1.60;;
75005;SDS011;63553;51.814;4.600;2023-05-10T14:15:00;2.80;;;1.80;;
75005;SDS011;63553;51.814;4.600;2023-05-10T14:17:25;2.92;;;1.90;;
75005;SDS011;63553;51.814;4.600;2023-05-10T14:19:50;2.07;;;1.60;;
75005;SDS011;63553;51.814;4.600;2023-05-10T14:22:17;2.50;;;1.85;;
75005;SDS011;63553;51.814;4.600;2023-05-10T14:24:43;2.33;;;2.13;;
75005;SDS011;63553;51.814;4.600;2023-05-10T14:27:11;2.65;;;1.80;;
75005;SDS011;63553;51.814;4.600;2023-05-10T14:29:37;2.85;;;2.00;;
75005;SDS011;63553;51.814;4.600;2023-05-10T14:32:02;1.90;;;1.80;;
75005;SDS011;63553;51.814;4.600;2023-05-10T14:34:27;3.13;;;1.60;;
75005;SDS011;63553;51.814;4.600;2023-05-10T14:36:53;1.53;;;1.43;;
75005;SDS011;63553;51.814;4.600;2023-05-10T14:39:18;2.27;;;1.63;;
75005;SDS011;63553;51.814;4.600;2023-05-10T14:41:43;2.03;;;1.50;;
75005;SDS011;63553;51.814;4.600;2023-05-10T14:44:10;4.50;;;2.42;;
75005;SDS011;63553;51.814;4.600;2023-05-10T14:46:35;2.50;;;2.30;;
75005;SDS011;63553;51.814;4.600;2023-05-10T14:49:01;2.20;;;1.90;;
75005;SDS011;63553;51.814;4.600;2023-05-10T14:51:26;2.75;;;1.85;;
75005;SDS011;63553;51.814;4.600;2023-05-10T14:53:51;3.27;;;1.73;;
75005;SDS011;63553;51.814;4.600;2023-05-10T14:56:17;2.90;;;2.00;;
75005;SDS011;63553;51.814;4.600;2023-05-10T14:58:42;1.87;;;1.50;;
75005;SDS011;63553;51.814;4.600;2023-05-10T15:01:07;2.60;;;1.63;;
75005;SDS011;63553;51.814;4.600;2023-05-10T15:03:33;1.93;;;1.70;;
75005;SDS011;63553;51.814;4.600;2023-05-10T15:05:58;2.20;;;2.00;;
75005;SDS011;63553;51.814;4.600;2023-05-10T15:08:24;1.92;;;1.50;;
75005;SDS011;63553;51.814;4.600;2023-05-10T15:10:52;2.10;;;1.90;;